DFKBB YQLP-YBIE

Flight info

Callsign DFKBB
Flight time 1h 56m
Altitude 8500
Route YSGW YGLE
Aircraft C208/L-V/N

Departure

Time 2026-04-19 15:31
Airport Quilpie Airport (YQLP)

Arrival

Time 2026-04-19 17:27
Airport Bedourie Airport (YBIE)
Time Latitude Longitude Altitude Speed Heading
2026-04-19 15:12 -26.61141 144.25674 664 ft 0 kts 272°
2026-04-19 15:24 -26.61143 144.25664 664 ft 2 kts 240°
2026-04-19 15:24 -26.61161 144.25662 664 ft 3 kts 136°
2026-04-19 15:25 -26.61158 144.25693 664 ft 5 kts 81°
2026-04-19 15:25 -26.61138 144.25752 664 ft 9 kts 22°
2026-04-19 15:25 -26.61068 144.25760 664 ft 11 kts
2026-04-19 15:25 -26.60982 144.25768 664 ft 12 kts
2026-04-19 15:26 -26.60934 144.25711 664 ft 12 kts 279°
2026-04-19 15:26 -26.60925 144.25597 666 ft 16 kts 275°
2026-04-19 15:26 -26.60917 144.25473 668 ft 15 kts 274°
2026-04-19 15:26 -26.60908 144.25352 669 ft 17 kts 272°
2026-04-19 15:27 -26.60895 144.25209 670 ft 18 kts 280°
2026-04-19 15:27 -26.60902 144.25142 671 ft 10 kts 71°
2026-04-19 15:27 -26.60900 144.25203 670 ft 0 kts 95°
2026-04-19 15:30 -26.60900 144.25207 670 ft 6 kts 94°
2026-04-19 15:30 -26.60922 144.25522 667 ft 70 kts 96°
2026-04-19 15:30 -26.60942 144.26131 879 ft 79 kts 95°
2026-04-19 15:30 -26.61060 144.26692 1150 ft 78 kts 120°
2026-04-19 15:31 -26.61467 144.27156 1302 ft 94 kts 154°
2026-04-19 15:31 -26.62143 144.27216 1594 ft 103 kts 187°
2026-04-19 15:31 -26.62685 144.26659 1934 ft 117 kts 237°
2026-04-19 15:31 -26.62811 144.25720 2182 ft 130 kts 278°
2026-04-19 15:32 -26.62583 144.25096 2345 ft 135 kts 309°
2026-04-19 15:32 -26.61672 144.24158 2789 ft 126 kts 326°
2026-04-19 15:32 -26.61028 144.23532 3116 ft 124 kts 324°
2026-04-19 15:32 -26.60291 144.22951 3267 ft 135 kts 332°
2026-04-19 15:33 -26.59491 144.22356 3509 ft 139 kts 332°
2026-04-19 15:33 -26.58685 144.21768 3763 ft 138 kts 333°
2026-04-19 15:33 -26.57894 144.21193 4004 ft 135 kts 332°
2026-04-19 15:33 -26.57105 144.20624 4238 ft 134 kts 333°
2026-04-19 15:34 -26.56318 144.20050 4465 ft 134 kts 330°
2026-04-19 15:34 -26.55762 144.19225 4670 ft 137 kts 294°
2026-04-19 15:34 -26.55440 144.18216 4906 ft 135 kts 290°
2026-04-19 15:34 -26.55159 144.17218 5128 ft 134 kts 289°
2026-04-19 15:35 -26.54888 144.16225 5348 ft 133 kts 289°
2026-04-19 15:35 -26.54625 144.15245 5565 ft 132 kts 289°
2026-04-19 15:35 -26.54365 144.14261 5786 ft 130 kts 289°
2026-04-19 15:35 -26.54113 144.13303 5997 ft 129 kts 289°
2026-04-19 15:36 -26.53864 144.12335 6202 ft 128 kts 289°
2026-04-19 15:36 -26.53625 144.11375 6410 ft 127 kts 289°
2026-04-19 15:36 -26.53384 144.10428 6608 ft 127 kts 290°
2026-04-19 15:36 -26.53151 144.09486 6799 ft 128 kts 289°
2026-04-19 15:37 -26.52909 144.08527 6996 ft 128 kts 289°
2026-04-19 15:37 -26.52665 144.07561 7192 ft 129 kts 289°
2026-04-19 15:37 -26.52422 144.06607 7385 ft 129 kts 289°
2026-04-19 15:37 -26.52174 144.05641 7580 ft 129 kts 289°
2026-04-19 15:38 -26.51914 144.04674 7772 ft 129 kts 294°
2026-04-19 15:38 -26.51571 144.03763 7957 ft 129 kts 294°
2026-04-19 15:38 -26.51202 144.02834 8152 ft 129 kts 295°
2026-04-19 15:38 -26.50832 144.01927 8346 ft 128 kts 295°
2026-04-19 15:39 -26.50455 144.01018 8502 ft 132 kts 296°
2026-04-19 15:39 -26.50050 144.00055 8526 ft 144 kts 296°
2026-04-19 15:39 -26.49609 143.99011 8525 ft 153 kts 296°
2026-04-19 15:39 -26.49144 143.97913 8519 ft 156 kts 296°
2026-04-19 15:40 -26.48680 143.96815 8517 ft 158 kts 296°
2026-04-19 15:40 -26.48207 143.95699 8516 ft 160 kts 296°
2026-04-19 15:40 -26.47728 143.94574 8517 ft 161 kts 296°
2026-04-19 15:40 -26.47251 143.93445 8516 ft 161 kts 296°
2026-04-19 15:41 -26.46769 143.92313 8514 ft 162 kts 296°
2026-04-19 15:41 -26.46283 143.91161 8512 ft 162 kts 297°
2026-04-19 15:41 -26.45804 143.90025 8511 ft 162 kts 297°
2026-04-19 15:41 -26.45323 143.88893 8510 ft 162 kts 296°
2026-04-19 15:42 -26.44841 143.87755 8510 ft 162 kts 296°
2026-04-19 15:42 -26.44354 143.86612 8509 ft 162 kts 296°
2026-04-19 15:42 -26.43860 143.85445 8510 ft 161 kts 296°
2026-04-19 15:42 -26.43368 143.84285 8511 ft 161 kts 296°
2026-04-19 15:43 -26.42893 143.83159 8509 ft 162 kts 296°
2026-04-19 15:43 -26.42404 143.82013 8510 ft 161 kts 296°
2026-04-19 15:43 -26.41919 143.80873 8512 ft 162 kts 296°
2026-04-19 15:44 -26.40953 143.78587 8510 ft 162 kts 296°
2026-04-19 15:44 -26.40468 143.77452 8509 ft 162 kts 296°
2026-04-19 15:44 -26.39990 143.76323 8508 ft 162 kts 297°
2026-04-19 15:44 -26.39502 143.75180 8508 ft 163 kts 297°
2026-04-19 15:45 -26.39013 143.74034 8508 ft 163 kts 296°
2026-04-19 15:45 -26.38532 143.72903 8505 ft 162 kts 296°
2026-04-19 15:45 -26.38044 143.71756 8506 ft 162 kts 296°
2026-04-19 15:45 -26.37561 143.70627 8508 ft 162 kts 296°
2026-04-19 15:46 -26.37082 143.69496 8510 ft 162 kts 296°
2026-04-19 15:46 -26.36590 143.68344 8510 ft 163 kts 296°
2026-04-19 15:46 -26.36106 143.67207 8509 ft 163 kts 296°
2026-04-19 15:46 -26.35622 143.66067 8510 ft 163 kts 296°
2026-04-19 15:47 -26.35131 143.64916 8510 ft 164 kts 296°
2026-04-19 15:47 -26.34642 143.63770 8512 ft 164 kts 295°
2026-04-19 15:47 -26.34156 143.62630 8510 ft 164 kts 296°
2026-04-19 15:47 -26.33666 143.61479 8509 ft 164 kts 296°
2026-04-19 15:48 -26.33173 143.60324 8506 ft 164 kts 296°
2026-04-19 15:48 -26.32689 143.59184 8507 ft 164 kts 296°
2026-04-19 15:48 -26.32195 143.58031 8506 ft 163 kts 296°
2026-04-19 15:48 -26.31713 143.56897 8508 ft 163 kts 296°
2026-04-19 15:49 -26.31221 143.55751 8509 ft 163 kts 296°
2026-04-19 15:49 -26.30729 143.54602 8504 ft 164 kts 295°
2026-04-19 15:49 -26.30244 143.53471 8504 ft 163 kts 295°
2026-04-19 15:49 -26.29755 143.52324 8505 ft 164 kts 295°
2026-04-19 15:50 -26.29268 143.51180 8503 ft 164 kts 295°
2026-04-19 15:50 -26.28772 143.50020 8505 ft 164 kts 295°
2026-04-19 15:50 -26.28280 143.48863 8506 ft 165 kts 296°
2026-04-19 15:50 -26.27789 143.47714 8507 ft 165 kts 296°
2026-04-19 15:51 -26.27294 143.46562 8508 ft 164 kts 296°
2026-04-19 15:51 -26.26807 143.45422 8507 ft 165 kts 296°
2026-04-19 15:51 -26.26311 143.44267 8503 ft 164 kts 296°
2026-04-19 15:51 -26.25815 143.43111 8501 ft 164 kts 296°
2026-04-19 15:52 -26.25324 143.41965 8503 ft 164 kts 296°
2026-04-19 15:52 -26.24834 143.40817 8500 ft 164 kts 295°
2026-04-19 15:52 -26.24344 143.39676 8503 ft 164 kts 296°
2026-04-19 15:52 -26.23849 143.38518 8498 ft 164 kts 296°
2026-04-19 15:53 -26.23360 143.37384 8498 ft 163 kts 296°
2026-04-19 15:53 -26.22872 143.36246 8496 ft 163 kts 295°
2026-04-19 15:53 -26.22379 143.35100 8496 ft 164 kts 295°
2026-04-19 15:53 -26.21880 143.33937 8496 ft 164 kts 296°
2026-04-19 15:54 -26.21385 143.32783 8495 ft 164 kts 295°
2026-04-19 15:54 -26.20890 143.31627 8495 ft 164 kts 296°
2026-04-19 15:54 -26.20394 143.30467 8495 ft 164 kts 296°
2026-04-19 15:54 -26.19900 143.29320 8498 ft 164 kts 296°
2026-04-19 15:55 -26.19397 143.28152 8501 ft 164 kts 296°
2026-04-19 15:55 -26.18902 143.27002 8502 ft 165 kts 295°
2026-04-19 15:55 -26.18410 143.25856 8501 ft 164 kts 296°
2026-04-19 15:55 -26.17910 143.24693 8497 ft 165 kts 296°
2026-04-19 15:56 -26.17413 143.23537 8497 ft 165 kts 296°
2026-04-19 15:56 -26.16913 143.22377 8499 ft 164 kts 295°
2026-04-19 15:56 -26.16412 143.21214 8498 ft 164 kts 295°
2026-04-19 15:56 -26.15919 143.20075 8496 ft 164 kts 295°
2026-04-19 15:57 -26.15423 143.18919 8499 ft 164 kts 295°
2026-04-19 15:57 -26.14921 143.17750 8498 ft 164 kts 295°
2026-04-19 15:57 -26.14420 143.16583 8494 ft 164 kts 295°
2026-04-19 15:57 -26.13922 143.15430 8495 ft 164 kts 296°
2026-04-19 15:58 -26.13424 143.14278 8494 ft 164 kts 296°
2026-04-19 15:58 -26.12924 143.13118 8500 ft 164 kts 296°
2026-04-19 15:58 -26.12424 143.11957 8497 ft 165 kts 296°
2026-04-19 15:58 -26.11916 143.10780 8495 ft 165 kts 296°
2026-04-19 15:59 -26.11424 143.09642 8492 ft 164 kts 295°
2026-04-19 15:59 -26.10922 143.08479 8493 ft 164 kts 296°
2026-04-19 15:59 -26.10415 143.07306 8495 ft 164 kts 296°
2026-04-19 15:59 -26.09915 143.06149 8495 ft 164 kts 296°
2026-04-19 16:00 -26.09419 143.05003 8495 ft 164 kts 296°
2026-04-19 16:00 -26.08927 143.03865 8497 ft 164 kts 295°
2026-04-19 16:00 -26.08431 143.02719 8500 ft 164 kts 295°
2026-04-19 16:00 -26.07938 143.01581 8496 ft 164 kts 295°
2026-04-19 16:01 -26.07442 143.00429 8494 ft 164 kts 295°
2026-04-19 16:01 -26.06953 142.99298 8492 ft 164 kts 295°
2026-04-19 16:01 -26.06454 142.98145 8497 ft 164 kts 295°
2026-04-19 16:01 -26.05961 142.97003 8494 ft 165 kts 295°
2026-04-19 16:02 -26.05462 142.95853 8492 ft 165 kts 295°
2026-04-19 16:02 -26.04966 142.94704 8493 ft 165 kts 296°
2026-04-19 16:02 -26.04463 142.93547 8496 ft 165 kts 295°
2026-04-19 16:02 -26.03962 142.92394 8492 ft 165 kts 295°
2026-04-19 16:03 -26.03466 142.91248 8495 ft 165 kts 295°
2026-04-19 16:03 -26.02968 142.90102 8494 ft 165 kts 295°
2026-04-19 16:03 -26.02464 142.88940 8491 ft 165 kts 295°
2026-04-19 16:03 -26.01957 142.87769 8489 ft 165 kts 295°
2026-04-19 16:04 -26.01455 142.86612 8489 ft 164 kts 295°
2026-04-19 16:04 -26.00960 142.85467 8488 ft 165 kts 295°
2026-04-19 16:04 -26.00460 142.84320 8490 ft 165 kts 296°
2026-04-19 16:04 -25.99954 142.83153 8485 ft 165 kts 296°
2026-04-19 16:05 -25.99459 142.82011 8489 ft 165 kts 296°
2026-04-19 16:05 -25.98960 142.80865 8490 ft 165 kts 296°
2026-04-19 16:05 -25.98450 142.79695 8489 ft 165 kts 296°
2026-04-19 16:05 -25.97958 142.78560 8488 ft 165 kts 295°
2026-04-19 16:06 -25.97451 142.77399 8489 ft 165 kts 295°
2026-04-19 16:06 -25.96947 142.76241 8492 ft 165 kts 295°
2026-04-19 16:06 -25.96446 142.75090 8488 ft 165 kts 295°
2026-04-19 16:06 -25.95951 142.73953 8487 ft 165 kts 295°
2026-04-19 16:07 -25.95449 142.72801 8486 ft 164 kts 295°
2026-04-19 16:07 -25.94954 142.71658 8489 ft 164 kts 295°
2026-04-19 16:07 -25.94452 142.70509 8488 ft 165 kts 295°
2026-04-19 16:07 -25.93955 142.69363 8486 ft 165 kts 295°
2026-04-19 16:08 -25.93441 142.68187 8490 ft 166 kts 295°
2026-04-19 16:08 -25.92938 142.67033 8492 ft 165 kts 295°
2026-04-19 16:08 -25.92441 142.65891 8489 ft 165 kts 295°
2026-04-19 16:08 -25.91936 142.64732 8488 ft 165 kts 295°
2026-04-19 16:09 -25.91428 142.63570 8489 ft 165 kts 295°
2026-04-19 16:09 -25.90924 142.62415 8487 ft 166 kts 295°
2026-04-19 16:09 -25.90420 142.61259 8486 ft 166 kts 295°
2026-04-19 16:09 -25.89910 142.60091 8488 ft 166 kts 295°
2026-04-19 16:10 -25.89410 142.58948 8487 ft 166 kts 295°
2026-04-19 16:10 -25.88906 142.57796 8489 ft 166 kts 295°
2026-04-19 16:10 -25.88402 142.56644 8488 ft 166 kts 295°
2026-04-19 16:10 -25.87896 142.55486 8486 ft 165 kts 295°
2026-04-19 16:11 -25.87397 142.54343 8487 ft 166 kts 295°
2026-04-19 16:11 -25.86894 142.53191 8491 ft 166 kts 295°
2026-04-19 16:11 -25.86389 142.52037 8487 ft 166 kts 295°
2026-04-19 16:11 -25.85878 142.50870 8486 ft 166 kts 295°
2026-04-19 16:12 -25.85376 142.49724 8486 ft 166 kts 295°
2026-04-19 16:12 -25.84870 142.48564 8487 ft 166 kts 295°
2026-04-19 16:12 -25.84363 142.47409 8485 ft 166 kts 295°
2026-04-19 16:12 -25.83863 142.46268 8485 ft 165 kts 295°
2026-04-19 16:13 -25.83355 142.45108 8487 ft 166 kts 295°
2026-04-19 16:13 -25.82850 142.43955 8487 ft 166 kts 295°
2026-04-19 16:13 -25.82345 142.42806 8486 ft 166 kts 295°
2026-04-19 16:13 -25.81841 142.41655 8485 ft 166 kts 295°
2026-04-19 16:14 -25.81337 142.40509 8490 ft 166 kts 295°
2026-04-19 16:14 -25.80827 142.39345 8489 ft 166 kts 295°
2026-04-19 16:14 -25.80325 142.38199 8487 ft 166 kts 295°
2026-04-19 16:14 -25.79815 142.37036 8488 ft 167 kts 295°
2026-04-19 16:15 -25.79304 142.35873 8489 ft 167 kts 295°
2026-04-19 16:15 -25.78796 142.34717 8488 ft 166 kts 295°
2026-04-19 16:15 -25.78281 142.33545 8484 ft 167 kts 295°
2026-04-19 16:15 -25.77776 142.32393 8485 ft 166 kts 296°
2026-04-19 16:16 -25.77270 142.31242 8483 ft 166 kts 295°
2026-04-19 16:16 -25.76758 142.30078 8484 ft 166 kts 295°
2026-04-19 16:16 -25.76251 142.28929 8489 ft 166 kts 295°
2026-04-19 16:16 -25.75749 142.27786 8485 ft 166 kts 295°
2026-04-19 16:17 -25.75239 142.26628 8486 ft 166 kts 295°
2026-04-19 16:17 -25.74735 142.25484 8484 ft 166 kts 295°
2026-04-19 16:17 -25.74225 142.24322 8487 ft 166 kts 295°
2026-04-19 16:17 -25.73723 142.23183 8483 ft 166 kts 295°
2026-04-19 16:18 -25.73208 142.22014 8488 ft 166 kts 295°
2026-04-19 16:18 -25.72706 142.20872 8486 ft 167 kts 295°
2026-04-19 16:18 -25.72189 142.19704 8487 ft 167 kts 295°
2026-04-19 16:18 -25.71684 142.18559 8486 ft 167 kts 295°
2026-04-19 16:19 -25.71169 142.17389 8486 ft 167 kts 295°
2026-04-19 16:19 -25.70663 142.16242 8485 ft 167 kts 295°
2026-04-19 16:19 -25.70153 142.15085 8487 ft 166 kts 295°
2026-04-19 16:19 -25.69644 142.13931 8487 ft 166 kts 295°
2026-04-19 16:20 -25.69132 142.12769 8487 ft 165 kts 295°
2026-04-19 16:20 -25.68627 142.11627 8488 ft 165 kts 295°
2026-04-19 16:20 -25.68118 142.10472 8488 ft 165 kts 295°
2026-04-19 16:20 -25.67606 142.09312 8488 ft 166 kts 295°
2026-04-19 16:21 -25.67166 142.08130 8489 ft 166 kts 290°
2026-04-19 16:21 -25.66751 142.06914 8487 ft 167 kts 289°
2026-04-19 16:21 -25.66348 142.05722 8486 ft 166 kts 289°
2026-04-19 16:21 -25.65939 142.04518 8486 ft 167 kts 290°
2026-04-19 16:22 -25.65532 142.03317 8488 ft 167 kts 290°
2026-04-19 16:22 -25.65121 142.02115 8492 ft 167 kts 289°
2026-04-19 16:22 -25.64709 142.00902 8491 ft 167 kts 290°
2026-04-19 16:22 -25.64292 141.99683 8489 ft 167 kts 290°
2026-04-19 16:23 -25.63877 141.98457 8490 ft 167 kts 290°
2026-04-19 16:23 -25.63469 141.97264 8488 ft 166 kts 290°
2026-04-19 16:23 -25.63055 141.96053 8489 ft 167 kts 290°
2026-04-19 16:23 -25.62642 141.94847 8489 ft 167 kts 290°
2026-04-19 16:24 -25.62234 141.93645 8492 ft 167 kts 290°
2026-04-19 16:24 -25.61822 141.92447 8490 ft 167 kts 290°
2026-04-19 16:24 -25.61408 141.91237 8490 ft 167 kts 289°
2026-04-19 16:24 -25.60996 141.90028 8492 ft 167 kts 289°
2026-04-19 16:25 -25.60583 141.88823 8491 ft 168 kts 290°
2026-04-19 16:25 -25.60173 141.87619 8489 ft 167 kts 290°
2026-04-19 16:25 -25.59762 141.86420 8490 ft 167 kts 290°
2026-04-19 16:25 -25.59352 141.85217 8490 ft 167 kts 290°
2026-04-19 16:26 -25.58940 141.84015 8491 ft 167 kts 290°
2026-04-19 16:26 -25.58527 141.82808 8490 ft 167 kts 290°
2026-04-19 16:26 -25.58108 141.81590 8491 ft 166 kts 290°
2026-04-19 16:26 -25.57701 141.80400 8491 ft 167 kts 290°
2026-04-19 16:27 -25.57289 141.79195 8493 ft 167 kts 290°
2026-04-19 16:27 -25.56871 141.77977 8492 ft 167 kts 290°
2026-04-19 16:27 -25.56459 141.76781 8492 ft 167 kts 290°
2026-04-19 16:27 -25.56044 141.75568 8490 ft 167 kts 290°
2026-04-19 16:28 -25.55632 141.74371 8491 ft 167 kts 289°
2026-04-19 16:28 -25.55218 141.73167 8493 ft 167 kts 290°
2026-04-19 16:28 -25.54808 141.71970 8494 ft 167 kts 290°
2026-04-19 16:28 -25.54393 141.70760 8492 ft 167 kts 290°
2026-04-19 16:29 -25.53977 141.69550 8492 ft 167 kts 290°
2026-04-19 16:29 -25.53561 141.68335 8492 ft 167 kts 290°
2026-04-19 16:29 -25.53143 141.67125 8495 ft 167 kts 289°
2026-04-19 16:29 -25.52721 141.65901 8494 ft 168 kts 290°
2026-04-19 16:30 -25.52305 141.64691 8493 ft 167 kts 290°
2026-04-19 16:30 -25.51889 141.63481 8491 ft 167 kts 290°
2026-04-19 16:30 -25.51465 141.62251 8491 ft 167 kts 290°
2026-04-19 16:30 -25.51047 141.61040 8496 ft 167 kts 290°
2026-04-19 16:31 -25.50628 141.59817 8495 ft 168 kts 290°
2026-04-19 16:31 -25.50211 141.58612 8493 ft 168 kts 289°
2026-04-19 16:31 -25.49792 141.57396 8494 ft 168 kts 289°
2026-04-19 16:31 -25.49367 141.56166 8493 ft 168 kts 289°
2026-04-19 16:32 -25.48949 141.54948 8493 ft 167 kts 290°
2026-04-19 16:32 -25.48526 141.53725 8490 ft 167 kts 290°
2026-04-19 16:32 -25.48111 141.52524 8492 ft 167 kts 289°
2026-04-19 16:32 -25.47688 141.51298 8494 ft 167 kts 289°
2026-04-19 16:33 -25.47268 141.50082 8492 ft 168 kts 289°
2026-04-19 16:33 -25.46853 141.48877 8497 ft 168 kts 290°
2026-04-19 16:33 -25.46428 141.47649 8497 ft 168 kts 289°
2026-04-19 16:33 -25.46006 141.46431 8495 ft 169 kts 290°
2026-04-19 16:34 -25.45585 141.45209 8495 ft 169 kts 290°
2026-04-19 16:34 -25.45156 141.43965 8496 ft 169 kts 290°
2026-04-19 16:34 -25.44733 141.42749 8493 ft 168 kts 290°
2026-04-19 16:34 -25.44317 141.41550 8495 ft 168 kts 289°
2026-04-19 16:35 -25.43896 141.40332 8496 ft 168 kts 290°
2026-04-19 16:35 -25.43473 141.39110 8493 ft 169 kts 289°
2026-04-19 16:35 -25.43056 141.37909 8496 ft 169 kts 289°
2026-04-19 16:35 -25.42634 141.36688 8494 ft 169 kts 289°
2026-04-19 16:36 -25.42215 141.35481 8495 ft 168 kts 289°
2026-04-19 16:36 -25.41785 141.34236 8492 ft 168 kts 290°
2026-04-19 16:36 -25.41361 141.33019 8492 ft 168 kts 290°
2026-04-19 16:36 -25.40931 141.31778 8491 ft 168 kts 290°
2026-04-19 16:37 -25.40516 141.30582 8494 ft 168 kts 290°
2026-04-19 16:37 -25.40093 141.29361 8492 ft 168 kts 290°
2026-04-19 16:37 -25.39667 141.28133 8494 ft 167 kts 290°
2026-04-19 16:37 -25.39247 141.26927 8492 ft 168 kts 289°
2026-04-19 16:38 -25.38825 141.25714 8494 ft 168 kts 290°
2026-04-19 16:38 -25.38407 141.24513 8494 ft 168 kts 289°
2026-04-19 16:38 -25.37989 141.23311 8493 ft 168 kts 289°
2026-04-19 16:38 -25.37567 141.22095 8491 ft 169 kts 289°
2026-04-19 16:39 -25.37147 141.20888 8493 ft 168 kts 290°
2026-04-19 16:39 -25.36729 141.19685 8493 ft 168 kts 290°
2026-04-19 16:39 -25.36306 141.18472 8492 ft 169 kts 289°
2026-04-19 16:39 -25.35882 141.17256 8492 ft 169 kts 290°
2026-04-19 16:40 -25.35466 141.16055 8489 ft 169 kts 289°
2026-04-19 16:40 -25.35039 141.14839 8493 ft 169 kts 290°
2026-04-19 16:40 -25.34621 141.13631 8490 ft 169 kts 289°
2026-04-19 16:40 -25.34195 141.12415 8494 ft 169 kts 289°
2026-04-19 16:41 -25.33772 141.11197 8489 ft 169 kts 289°
2026-04-19 16:41 -25.33353 141.09998 8492 ft 169 kts 290°
2026-04-19 16:41 -25.32925 141.08774 8496 ft 169 kts 290°
2026-04-19 16:41 -25.32507 141.07571 8495 ft 169 kts 290°
2026-04-19 16:42 -25.32080 141.06351 8493 ft 169 kts 289°
2026-04-19 16:42 -25.31657 141.05144 8495 ft 170 kts 289°
2026-04-19 16:42 -25.31231 141.03928 8500 ft 169 kts 289°
2026-04-19 16:42 -25.30805 141.02710 8494 ft 170 kts 289°
2026-04-19 16:43 -25.30382 141.01498 8497 ft 169 kts 289°
2026-04-19 16:43 -25.29955 141.00275 8495 ft 169 kts 289°
2026-04-19 16:43 -25.29537 140.99075 8492 ft 169 kts 289°
2026-04-19 16:43 -25.29112 140.97861 8493 ft 169 kts 289°
2026-04-19 16:44 -25.28685 140.96643 8493 ft 169 kts 289°
2026-04-19 16:44 -25.28261 140.95430 8493 ft 169 kts 290°
2026-04-19 16:44 -25.27844 140.94235 8492 ft 169 kts 290°
2026-04-19 16:44 -25.27417 140.93018 8493 ft 169 kts 290°
2026-04-19 16:45 -25.26993 140.91809 8494 ft 170 kts 290°
2026-04-19 16:45 -25.26562 140.90582 8493 ft 170 kts 290°
2026-04-19 16:45 -25.26139 140.89375 8493 ft 169 kts 290°
2026-04-19 16:45 -25.25709 140.88153 8492 ft 169 kts 290°
2026-04-19 16:46 -25.25286 140.86946 8492 ft 170 kts 290°
2026-04-19 16:46 -25.24857 140.85731 8494 ft 169 kts 289°
2026-04-19 16:46 -25.24430 140.84515 8491 ft 170 kts 289°
2026-04-19 16:46 -25.24003 140.83298 8494 ft 170 kts 289°
2026-04-19 16:47 -25.23577 140.82077 8494 ft 170 kts 289°
2026-04-19 16:47 -25.23148 140.80862 8494 ft 170 kts 289°
2026-04-19 16:47 -25.22718 140.79646 8492 ft 170 kts 290°
2026-04-19 16:47 -25.22276 140.78424 8491 ft 170 kts 291°
2026-04-19 16:48 -25.21841 140.77216 8489 ft 170 kts 291°
2026-04-19 16:48 -25.21410 140.76007 8494 ft 170 kts 291°
2026-04-19 16:48 -25.20976 140.74783 8492 ft 169 kts 291°
2026-04-19 16:48 -25.20549 140.73576 8490 ft 169 kts 291°
2026-04-19 16:49 -25.20118 140.72359 8488 ft 169 kts 290°
2026-04-19 16:49 -25.19688 140.71149 8490 ft 169 kts 290°
2026-04-19 16:49 -25.19267 140.69951 8488 ft 169 kts 290°
2026-04-19 16:49 -25.18836 140.68733 8493 ft 169 kts 290°
2026-04-19 16:50 -25.18412 140.67531 8494 ft 169 kts 290°
2026-04-19 16:50 -25.17987 140.66324 8494 ft 169 kts 290°
2026-04-19 16:50 -25.17557 140.65108 8491 ft 169 kts 290°
2026-04-19 16:50 -25.17129 140.63890 8493 ft 169 kts 289°
2026-04-19 16:51 -25.16701 140.62676 8492 ft 170 kts 290°
2026-04-19 16:51 -25.16268 140.61450 8493 ft 170 kts 290°
2026-04-19 16:51 -25.15840 140.60233 8491 ft 170 kts 290°
2026-04-19 16:51 -25.15411 140.59024 8489 ft 170 kts 291°
2026-04-19 16:52 -25.14977 140.57794 8491 ft 170 kts 290°
2026-04-19 16:52 -25.14545 140.56576 8492 ft 171 kts 290°
2026-04-19 16:52 -25.14115 140.55360 8493 ft 171 kts 290°
2026-04-19 16:52 -25.13679 140.54125 8492 ft 171 kts 290°
2026-04-19 16:53 -25.13245 140.52896 8490 ft 170 kts 290°
2026-04-19 16:53 -25.12815 140.51688 8489 ft 170 kts 290°
2026-04-19 16:53 -25.12380 140.50468 8489 ft 170 kts 290°
2026-04-19 16:53 -25.11951 140.49252 8495 ft 170 kts 290°
2026-04-19 16:54 -25.11524 140.48038 8489 ft 170 kts 291°
2026-04-19 16:54 -25.11091 140.46819 8485 ft 170 kts 290°
2026-04-19 16:54 -25.10660 140.45604 8483 ft 170 kts 290°
2026-04-19 16:54 -25.10229 140.44379 8491 ft 170 kts 291°
2026-04-19 16:55 -25.09800 140.43170 8487 ft 170 kts 291°
2026-04-19 16:55 -25.08931 140.40729 8489 ft 171 kts 291°
2026-04-19 16:55 -25.08496 140.39504 8487 ft 170 kts 290°
2026-04-19 16:56 -25.08063 140.38290 8487 ft 170 kts 290°
2026-04-19 16:56 -25.07627 140.37070 8483 ft 170 kts 290°
2026-04-19 16:56 -25.07201 140.35863 8487 ft 170 kts 289°
2026-04-19 16:56 -25.06768 140.34651 8492 ft 170 kts 290°
2026-04-19 16:57 -25.06339 140.33429 8489 ft 170 kts 290°
2026-04-19 16:57 -25.05906 140.32220 8487 ft 170 kts 291°
2026-04-19 16:57 -25.05468 140.30989 8486 ft 171 kts 290°
2026-04-19 16:57 -25.05037 140.29771 8491 ft 171 kts 291°
2026-04-19 16:58 -25.04596 140.28536 8485 ft 171 kts 291°
2026-04-19 16:58 -25.04160 140.27316 8488 ft 171 kts 291°
2026-04-19 16:58 -25.03722 140.26085 8487 ft 171 kts 290°
2026-04-19 16:58 -25.03279 140.24841 8494 ft 171 kts 290°
2026-04-19 16:59 -25.02842 140.23612 8485 ft 172 kts 290°
2026-04-19 16:59 -25.02407 140.22388 8489 ft 171 kts 291°
2026-04-19 16:59 -25.01972 140.21170 8484 ft 170 kts 290°
2026-04-19 16:59 -25.01535 140.19957 8483 ft 170 kts 291°
2026-04-19 17:00 -25.01107 140.18751 8492 ft 170 kts 291°
2026-04-19 17:00 -25.00667 140.17523 8490 ft 170 kts 290°
2026-04-19 17:00 -25.00229 140.16293 8486 ft 171 kts 290°
2026-04-19 17:00 -24.99789 140.15062 8487 ft 170 kts 290°
2026-04-19 17:01 -24.99350 140.13832 8487 ft 170 kts 290°
2026-04-19 17:01 -24.98916 140.12614 8485 ft 171 kts 290°
2026-04-19 17:01 -24.98479 140.11391 8486 ft 170 kts 290°
2026-04-19 17:01 -24.98045 140.10178 8489 ft 171 kts 290°
2026-04-19 17:02 -24.97608 140.08960 8489 ft 171 kts 290°
2026-04-19 17:02 -24.97172 140.07738 8489 ft 171 kts 290°
2026-04-19 17:02 -24.96735 140.06517 8488 ft 171 kts 290°
2026-04-19 17:02 -24.96295 140.05292 8491 ft 172 kts 290°
2026-04-19 17:03 -24.95850 140.04048 8487 ft 172 kts 290°
2026-04-19 17:03 -24.95413 140.02824 8489 ft 171 kts 290°
2026-04-19 17:03 -24.94978 140.01614 8488 ft 171 kts 290°
2026-04-19 17:03 -24.94535 140.00382 8489 ft 171 kts 290°
2026-04-19 17:04 -24.94099 139.99164 8488 ft 171 kts 290°
2026-04-19 17:04 -24.93662 139.97949 8488 ft 171 kts 290°
2026-04-19 17:04 -24.93230 139.96739 8490 ft 171 kts 290°
2026-04-19 17:04 -24.92788 139.95508 8491 ft 172 kts 290°
2026-04-19 17:05 -24.92351 139.94290 8489 ft 171 kts 290°
2026-04-19 17:05 -24.91908 139.93057 8487 ft 172 kts 290°
2026-04-19 17:05 -24.91469 139.91836 8486 ft 172 kts 290°
2026-04-19 17:05 -24.91028 139.90611 8487 ft 172 kts 290°
2026-04-19 17:06 -24.90589 139.89394 8486 ft 172 kts 290°
2026-04-19 17:06 -24.90144 139.88158 8483 ft 172 kts 290°
2026-04-19 17:06 -24.89708 139.86938 8482 ft 171 kts 290°
2026-04-19 17:06 -24.89271 139.85730 8481 ft 171 kts 290°
2026-04-19 17:07 -24.88829 139.84499 8482 ft 171 kts 290°
2026-04-19 17:07 -24.88393 139.83284 8479 ft 171 kts 289°
2026-04-19 17:07 -24.87957 139.82069 8481 ft 171 kts 290°
2026-04-19 17:07 -24.87516 139.80843 8481 ft 171 kts 290°
2026-04-19 17:08 -24.87077 139.79629 8483 ft 171 kts 290°
2026-04-19 17:08 -24.86634 139.78401 8483 ft 171 kts 290°
2026-04-19 17:08 -24.86198 139.77185 8481 ft 171 kts 290°
2026-04-19 17:08 -24.85757 139.75967 8482 ft 171 kts 290°
2026-04-19 17:09 -24.85322 139.74762 8482 ft 171 kts 290°
2026-04-19 17:09 -24.84876 139.73532 8481 ft 171 kts 289°
2026-04-19 17:09 -24.84437 139.72316 8482 ft 171 kts 290°
2026-04-19 17:09 -24.84002 139.71104 8481 ft 171 kts 290°
2026-04-19 17:10 -24.83556 139.69870 8483 ft 171 kts 290°
2026-04-19 17:10 -24.83119 139.68658 8484 ft 171 kts 290°
2026-04-19 17:10 -24.82673 139.67427 8485 ft 171 kts 290°
2026-04-19 17:10 -24.82236 139.66219 8506 ft 170 kts 289°
2026-04-19 17:11 -24.81799 139.65006 8509 ft 170 kts 289°
2026-04-19 17:11 -24.81362 139.63791 8509 ft 171 kts 289°
2026-04-19 17:11 -24.80924 139.62575 8511 ft 171 kts 290°
2026-04-19 17:11 -24.80483 139.61339 8510 ft 172 kts 289°
2026-04-19 17:12 -24.79958 139.60159 8516 ft 173 kts 313°
2026-04-19 17:12 -24.78926 139.59492 8527 ft 171 kts 340°
2026-04-19 17:12 -24.77771 139.59076 8366 ft 181 kts 345°
2026-04-19 17:12 -24.76533 139.58676 8179 ft 187 kts 346°
2026-04-19 17:13 -24.75264 139.58292 7990 ft 191 kts 346°
2026-04-19 17:13 -24.73963 139.57921 7793 ft 193 kts 348°
2026-04-19 17:13 -24.72649 139.57541 7520 ft 197 kts 347°
2026-04-19 17:13 -24.71323 139.57182 7205 ft 193 kts 347°
2026-04-19 17:14 -24.70051 139.56824 6941 ft 188 kts 348°
2026-04-19 17:14 -24.68791 139.56467 6815 ft 179 kts 347°
2026-04-19 17:14 -24.67631 139.56136 6808 ft 167 kts 347°
2026-04-19 17:14 -24.66494 139.55814 6623 ft 170 kts 347°
2026-04-19 17:15 -24.65331 139.55476 6398 ft 174 kts 347°
2026-04-19 17:15 -24.64167 139.55144 6153 ft 173 kts 347°
2026-04-19 17:15 -24.62995 139.54800 5909 ft 172 kts 348°
2026-04-19 17:15 -24.61845 139.54469 5668 ft 171 kts 348°
2026-04-19 17:16 -24.60692 139.54134 5424 ft 170 kts 348°
2026-04-19 17:16 -24.59559 139.53787 5185 ft 170 kts 347°
2026-04-19 17:16 -24.58407 139.53433 4929 ft 170 kts 347°
2026-04-19 17:16 -24.57274 139.53087 4693 ft 166 kts 347°
2026-04-19 17:17 -24.56189 139.52750 4586 ft 161 kts 347°
2026-04-19 17:17 -24.55103 139.52408 4493 ft 162 kts 347°
2026-04-19 17:17 -24.54013 139.52071 4396 ft 162 kts 348°
2026-04-19 17:17 -24.52932 139.51732 4300 ft 162 kts 347°
2026-04-19 17:18 -24.51840 139.51395 4204 ft 163 kts 347°
2026-04-19 17:18 -24.50735 139.51041 4113 ft 164 kts 347°
2026-04-19 17:18 -24.49635 139.50697 4017 ft 165 kts 347°
2026-04-19 17:18 -24.48557 139.50249 3925 ft 168 kts 329°
2026-04-19 17:19 -24.47571 139.49528 3830 ft 168 kts 328°
2026-04-19 17:19 -24.46606 139.48808 3711 ft 168 kts 328°
2026-04-19 17:19 -24.45643 139.48074 3559 ft 167 kts 327°
2026-04-19 17:19 -24.44689 139.47351 3386 ft 169 kts 328°
2026-04-19 17:20 -24.43701 139.46597 3122 ft 172 kts 328°
2026-04-19 17:20 -24.42713 139.45850 2851 ft 173 kts 328°
2026-04-19 17:20 -24.41726 139.45077 2593 ft 174 kts 327°
2026-04-19 17:20 -24.40747 139.44308 2365 ft 170 kts 328°
2026-04-19 17:21 -24.39805 139.43573 2124 ft 167 kts 328°
2026-04-19 17:21 -24.38874 139.42830 1852 ft 164 kts 326°
2026-04-19 17:21 -24.37987 139.42119 1638 ft 150 kts 327°
2026-04-19 17:21 -24.37159 139.41452 1371 ft 145 kts 327°
2026-04-19 17:22 -24.36362 139.40819 1305 ft 136 kts 328°
2026-04-19 17:22 -24.35605 139.40218 1337 ft 128 kts 329°
2026-04-19 17:22 -24.34887 139.39644 1309 ft 127 kts 326°
2026-04-19 17:22 -24.34182 139.39066 1295 ft 127 kts 325°
2026-04-19 17:23 -24.33470 139.38516 1348 ft 118 kts 344°
2026-04-19 17:23 -24.32706 139.38538 1448 ft 105 kts 31°
2026-04-19 17:23 -24.32218 139.39052 1456 ft 98 kts 66°
2026-04-19 17:23 -24.31767 139.39616 1487 ft 101 kts 55°
2026-04-19 17:24 -24.31247 139.40150 1409 ft 100 kts 55°
2026-04-19 17:24 -24.30711 139.40651 1352 ft 100 kts 50°
2026-04-19 17:24 -24.30229 139.41168 1239 ft 91 kts 63°
2026-04-19 17:24 -24.30070 139.41763 1160 ft 75 kts 111°
2026-04-19 17:25 -24.30267 139.42290 1040 ft 76 kts 114°
2026-04-19 17:25 -24.30527 139.42806 1019 ft 76 kts 131°
2026-04-19 17:25 -24.30923 139.43214 970 ft 79 kts 137°
2026-04-19 17:25 -24.31366 139.43561 920 ft 77 kts 139°
2026-04-19 17:26 -24.31805 139.43924 808 ft 81 kts 140°
2026-04-19 17:26 -24.32272 139.44284 731 ft 82 kts 140°
2026-04-19 17:26 -24.32737 139.44612 588 ft 79 kts 144°
2026-04-19 17:26 -24.33169 139.44943 506 ft 75 kts 140°
2026-04-19 17:27 -24.33597 139.45271 409 ft 75 kts 143°
2026-04-19 17:27 -24.34016 139.45577 315 ft 69 kts 137°
2026-04-19 17:27 -24.34370 139.45842 308 ft 47 kts 144°
2026-04-19 17:27 -24.34600 139.46010 308 ft 34 kts 143°
2026-04-19 17:28 -24.34774 139.46144 306 ft 27 kts 145°
2026-04-19 17:28 -24.34927 139.46251 305 ft 24 kts 144°
2026-04-19 17:28 -24.35055 139.46353 305 ft 22 kts 147°
2026-04-19 17:28 -24.35141 139.46416 304 ft 14 kts 152°
2026-04-19 17:29 -24.35188 139.46396 303 ft 0 kts 222°
2026-04-19 17:29 -24.35191 139.46393 303 ft 2 kts 223°
2026-04-19 17:30 -24.35171 139.46352 302 ft 12 kts 338°
2026-04-19 17:30 -24.35137 139.46315 302 ft 6 kts 221°
2026-04-19 17:30 -24.35153 139.46317 302 ft 0 kts 162°
2026-04-19 17:30 -24.35154 139.46317 302 ft 0 kts 145°
2026-04-19 17:31 -24.35154 139.46320 302 ft 0 kts 62°
2026-04-19 17:31 -24.35155 139.46317 302 ft 0 kts 60°
2026-04-19 17:31 -24.35156 139.46315 302 ft 0 kts 60°